sensor_id;sensor_type;location;lat;lon;timestamp;pressure;altitude;pressure_sealevel;temperature
71205;BMP180;58935;54.498;18.544;2022-08-03T00:00:47;100853.80;;;16.40
71205;BMP180;58935;54.498;18.544;2022-08-03T00:03:12;100853.00;;;16.44
71205;BMP180;58935;54.498;18.544;2022-08-03T00:05:38;100851.00;;;16.50
71205;BMP180;58935;54.498;18.544;2022-08-03T00:08:04;100850.60;;;16.48
71205;BMP180;58935;54.498;18.544;2022-08-03T00:10:30;100853.60;;;16.50
71205;BMP180;58935;54.498;18.544;2022-08-03T00:12:55;100852.00;;;16.50
71205;BMP180;58935;54.498;18.544;2022-08-03T00:15:21;100849.20;;;16.50
71205;BMP180;58935;54.498;18.544;2022-08-03T00:17:46;100841.00;;;16.60
71205;BMP180;58935;54.498;18.544;2022-08-03T00:20:12;100838.40;;;16.60
71205;BMP180;58935;54.498;18.544;2022-08-03T00:22:37;100839.00;;;16.60
71205;BMP180;58935;54.498;18.544;2022-08-03T00:25:03;100838.80;;;16.60
71205;BMP180;58935;54.498;18.544;2022-08-03T00:27:29;100834.60;;;16.60
71205;BMP180;58935;54.498;18.544;2022-08-03T00:29:54;100830.60;;;16.60
71205;BMP180;58935;54.498;18.544;2022-08-03T00:32:20;100836.40;;;16.60
71205;BMP180;58935;54.498;18.544;2022-08-03T00:34:45;100824.60;;;16.60
71205;BMP180;58935;54.498;18.544;2022-08-03T00:37:11;100824.80;;;16.60
71205;BMP180;58935;54.498;18.544;2022-08-03T00:39:36;100823.40;;;16.64
71205;BMP180;58935;54.498;18.544;2022-08-03T00:42:03;100818.80;;;16.68
71205;BMP180;58935;54.498;18.544;2022-08-03T00:44:29;100821.40;;;16.70
71205;BMP180;58935;54.498;18.544;2022-08-03T00:46:55;100818.40;;;16.70
71205;BMP180;58935;54.498;18.544;2022-08-03T00:49:20;100815.80;;;16.70
71205;BMP180;58935;54.498;18.544;2022-08-03T00:51:46;100813.60;;;16.70
71205;BMP180;58935;54.498;18.544;2022-08-03T00:54:14;100819.00;;;16.70
71205;BMP180;58935;54.498;18.544;2022-08-03T00:56:41;100819.00;;;16.70
71205;BMP180;58935;54.498;18.544;2022-08-03T00:59:09;100815.20;;;16.70
71205;BMP180;58935;54.498;18.544;2022-08-03T01:01:35;100817.60;;;16.70
71205;BMP180;58935;54.498;18.544;2022-08-03T01:04:00;100813.60;;;16.70
71205;BMP180;58935;54.498;18.544;2022-08-03T01:09:20;100815.80;;;16.70
71205;BMP180;58935;54.498;18.544;2022-08-03T01:12:02;100813.40;;;16.70
71205;BMP180;58935;54.498;18.544;2022-08-03T01:14:45;100813.00;;;16.70
71205;BMP180;58935;54.498;18.544;2022-08-03T01:17:33;100810.60;;;16.70
71205;BMP180;58935;54.498;18.544;2022-08-03T01:20:07;100808.80;;;16.70
71205;BMP180;58935;54.498;18.544;2022-08-03T01:25:50;100801.40;;;16.70
71205;BMP180;58935;54.498;18.544;2022-08-03T01:28:43;100798.80;;;16.80
71205;BMP180;58935;54.498;18.544;2022-08-03T01:31:21;100798.40;;;16.80
71205;BMP180;58935;54.498;18.544;2022-08-03T01:33:59;100799.20;;;16.80
71205;BMP180;58935;54.498;18.544;2022-08-03T01:36:35;100802.00;;;16.90
71205;BMP180;58935;54.498;18.544;2022-08-03T01:39:05;100800.80;;;16.90
71205;BMP180;58935;54.498;18.544;2022-08-03T01:41:40;100800.00;;;16.90
71205;BMP180;58935;54.498;18.544;2022-08-03T01:44:09;100798.40;;;16.90
71205;BMP180;58935;54.498;18.544;2022-08-03T01:46:37;100793.20;;;16.92
71205;BMP180;58935;54.498;18.544;2022-08-03T01:49:07;100794.00;;;17.00
71205;BMP180;58935;54.498;18.544;2022-08-03T01:51:37;100794.80;;;17.00
71205;BMP180;58935;54.498;18.544;2022-08-03T01:54:04;100789.80;;;17.00
71205;BMP180;58935;54.498;18.544;2022-08-03T01:56:32;100786.40;;;17.10
71205;BMP180;58935;54.498;18.544;2022-08-03T01:59:01;100788.40;;;17.10
71205;BMP180;58935;54.498;18.544;2022-08-03T02:01:28;100784.40;;;17.10
71205;BMP180;58935;54.498;18.544;2022-08-03T02:03:58;100784.80;;;17.10
71205;BMP180;58935;54.498;18.544;2022-08-03T02:06:26;100782.00;;;17.10
71205;BMP180;58935;54.498;18.544;2022-08-03T02:08:53;100778.60;;;17.10
71205;BMP180;58935;54.498;18.544;2022-08-03T02:11:20;100777.20;;;17.10
71205;BMP180;58935;54.498;18.544;2022-08-03T02:13:47;100776.80;;;17.14
71205;BMP180;58935;54.498;18.544;2022-08-03T02:16:17;100778.60;;;17.20
71205;BMP180;58935;54.498;18.544;2022-08-03T02:18:45;100779.00;;;17.18
71205;BMP180;58935;54.498;18.544;2022-08-03T02:21:12;100773.40;;;17.10
71205;BMP180;58935;54.498;18.544;2022-08-03T02:23:39;100771.00;;;17.10
71205;BMP180;58935;54.498;18.544;2022-08-03T02:26:12;100773.00;;;17.10
71205;BMP180;58935;54.498;18.544;2022-08-03T02:28:44;100770.20;;;17.10
71205;BMP180;58935;54.498;18.544;2022-08-03T02:31:18;100771.60;;;17.10
71205;BMP180;58935;54.498;18.544;2022-08-03T02:33:52;100765.00;;;17.10
71205;BMP180;58935;54.498;18.544;2022-08-03T02:36:21;100765.40;;;17.10
71205;BMP180;58935;54.498;18.544;2022-08-03T02:38:53;100764.40;;;17.10
71205;BMP180;58935;54.498;18.544;2022-08-03T02:41:30;100759.00;;;17.10
71205;BMP180;58935;54.498;18.544;2022-08-03T02:44:01;100764.00;;;17.10
71205;BMP180;58935;54.498;18.544;2022-08-03T02:46:35;100762.80;;;17.10
71205;BMP180;58935;54.498;18.544;2022-08-03T02:49:03;100761.00;;;17.10
71205;BMP180;58935;54.498;18.544;2022-08-03T02:51:32;100759.80;;;17.08
71205;BMP180;58935;54.498;18.544;2022-08-03T02:54:02;100752.40;;;17.00
71205;BMP180;58935;54.498;18.544;2022-08-03T02:56:29;100754.00;;;17.00
71205;BMP180;58935;54.498;18.544;2022-08-03T02:58:58;100756.00;;;17.04
71205;BMP180;58935;54.498;18.544;2022-08-03T03:01:26;100753.00;;;17.02
71205;BMP180;58935;54.498;18.544;2022-08-03T03:03:55;100757.60;;;17.06
71205;BMP180;58935;54.498;18.544;2022-08-03T03:06:24;100754.80;;;17.10
71205;BMP180;58935;54.498;18.544;2022-08-03T03:08:51;100757.00;;;17.08
71205;BMP180;58935;54.498;18.544;2022-08-03T03:11:20;100757.40;;;17.08
71205;BMP180;58935;54.498;18.544;2022-08-03T03:13:48;100760.60;;;17.10
71205;BMP180;58935;54.498;18.544;2022-08-03T03:16:15;100756.20;;;17.10
71205;BMP180;58935;54.498;18.544;2022-08-03T03:18:44;100756.40;;;17.10
71205;BMP180;58935;54.498;18.544;2022-08-03T03:21:15;100756.40;;;17.10
71205;BMP180;58935;54.498;18.544;2022-08-03T03:23:41;100757.20;;;17.10
71205;BMP180;58935;54.498;18.544;2022-08-03T03:26:08;100753.80;;;17.10
71205;BMP180;58935;54.498;18.544;2022-08-03T03:28:35;100753.00;;;17.10
71205;BMP180;58935;54.498;18.544;2022-08-03T03:31:04;100758.60;;;17.20
71205;BMP180;58935;54.498;18.544;2022-08-03T03:33:32;100761.60;;;17.20
71205;BMP180;58935;54.498;18.544;2022-08-03T03:35:58;100758.40;;;17.30
71205;BMP180;58935;54.498;18.544;2022-08-03T03:38:24;100759.40;;;17.30
71205;BMP180;58935;54.498;18.544;2022-08-03T03:40:50;100763.80;;;17.40
71205;BMP180;58935;54.498;18.544;2022-08-03T03:43:16;100766.40;;;17.40
71205;BMP180;58935;54.498;18.544;2022-08-03T03:45:43;100766.60;;;17.40
71205;BMP180;58935;54.498;18.544;2022-08-03T03:48:09;100760.40;;;17.50
71205;BMP180;58935;54.498;18.544;2022-08-03T03:50:36;100760.80;;;17.50
71205;BMP180;58935;54.498;18.544;2022-08-03T03:53:03;100765.00;;;17.52
71205;BMP180;58935;54.498;18.544;2022-08-03T03:55:29;100771.60;;;17.60
71205;BMP180;58935;54.498;18.544;2022-08-03T03:57:55;100772.80;;;17.64
71205;BMP180;58935;54.498;18.544;2022-08-03T04:00:22;100768.40;;;17.70
71205;BMP180;58935;54.498;18.544;2022-08-03T04:02:47;100773.00;;;17.70
71205;BMP180;58935;54.498;18.544;2022-08-03T04:05:14;100774.00;;;17.80
71205;BMP180;58935;54.498;18.544;2022-08-03T04:07:58;100771.60;;;17.80
71205;BMP180;58935;54.498;18.544;2022-08-03T04:10:31;100776.60;;;17.80
71205;BMP180;58935;54.498;18.544;2022-08-03T04:13:13;100778.40;;;17.80
71205;BMP180;58935;54.498;18.544;2022-08-03T04:15:40;100775.60;;;17.90
71205;BMP180;58935;54.498;18.544;2022-08-03T04:18:10;100779.40;;;17.92
71205;BMP180;58935;54.498;18.544;2022-08-03T04:20:44;100780.80;;;18.00
71205;BMP180;58935;54.498;18.544;2022-08-03T04:23:13;100783.40;;;18.10
71205;BMP180;58935;54.498;18.544;2022-08-03T04:25:42;100783.00;;;18.20
71205;BMP180;58935;54.498;18.544;2022-08-03T04:28:09;100779.80;;;18.30
71205;BMP180;58935;54.498;18.544;2022-08-03T04:30:37;100783.60;;;18.40
71205;BMP180;58935;54.498;18.544;2022-08-03T04:33:05;100783.00;;;18.50
71205;BMP180;58935;54.498;18.544;2022-08-03T04:35:34;100788.00;;;18.60
71205;BMP180;58935;54.498;18.544;2022-08-03T04:38:05;100795.20;;;18.70
71205;BMP180;58935;54.498;18.544;2022-08-03T04:40:34;100793.60;;;18.82
71205;BMP180;58935;54.498;18.544;2022-08-03T04:43:01;100791.40;;;19.00
71205;BMP180;58935;54.498;18.544;2022-08-03T04:45:30;100785.40;;;19.10
71205;BMP180;58935;54.498;18.544;2022-08-03T04:47:57;100785.00;;;19.30
71205;BMP180;58935;54.498;18.544;2022-08-03T04:50:24;100790.60;;;19.42
71205;BMP180;58935;54.498;18.544;2022-08-03T04:52:50;100785.00;;;19.60
71205;BMP180;58935;54.498;18.544;2022-08-03T04:57:51;100788.60;;;19.90
71205;BMP180;58935;54.498;18.544;2022-08-03T05:00:17;100790.60;;;20.10
71205;BMP180;58935;54.498;18.544;2022-08-03T05:02:43;100798.20;;;20.20
71205;BMP180;58935;54.498;18.544;2022-08-03T05:05:08;100794.40;;;20.32
71205;BMP180;58935;54.498;18.544;2022-08-03T05:07:34;100798.20;;;20.50
71205;BMP180;58935;54.498;18.544;2022-08-03T05:10:00;100801.40;;;20.60
71205;BMP180;58935;54.498;18.544;2022-08-03T05:12:25;100807.00;;;20.70
71205;BMP180;58935;54.498;18.544;2022-08-03T05:14:50;100808.60;;;20.80
71205;BMP180;58935;54.498;18.544;2022-08-03T05:17:16;100807.00;;;20.90
71205;BMP180;58935;54.498;18.544;2022-08-03T05:19:41;100802.20;;;21.00
71205;BMP180;58935;54.498;18.544;2022-08-03T05:22:06;100808.40;;;21.10
71205;BMP180;58935;54.498;18.544;2022-08-03T05:24:32;100808.40;;;21.14
71205;BMP180;58935;54.498;18.544;2022-08-03T05:26:57;100808.20;;;21.20
71205;BMP180;58935;54.498;18.544;2022-08-03T05:29:23;100814.20;;;21.30
71205;BMP180;58935;54.498;18.544;2022-08-03T05:31:48;100817.60;;;21.30
71205;BMP180;58935;54.498;18.544;2022-08-03T05:34:13;100812.00;;;21.40
71205;BMP180;58935;54.498;18.544;2022-08-03T05:36:39;100823.20;;;21.40
71205;BMP180;58935;54.498;18.544;2022-08-03T05:39:04;100822.00;;;21.50
71205;BMP180;58935;54.498;18.544;2022-08-03T05:41:30;100825.20;;;21.60
71205;BMP180;58935;54.498;18.544;2022-08-03T05:43:55;100824.80;;;21.60
71205;BMP180;58935;54.498;18.544;2022-08-03T05:46:21;100824.20;;;21.60
71205;BMP180;58935;54.498;18.544;2022-08-03T05:48:47;100827.20;;;21.70
71205;BMP180;58935;54.498;18.544;2022-08-03T05:51:13;100832.00;;;21.70
71205;BMP180;58935;54.498;18.544;2022-08-03T05:53:41;100831.20;;;21.70
71205;BMP180;58935;54.498;18.544;2022-08-03T05:56:08;100824.20;;;21.70
71205;BMP180;58935;54.498;18.544;2022-08-03T05:58:33;100825.60;;;21.80
71205;BMP180;58935;54.498;18.544;2022-08-03T06:00:59;100829.40;;;21.80
71205;BMP180;58935;54.498;18.544;2022-08-03T06:03:24;100826.80;;;21.80
71205;BMP180;58935;54.498;18.544;2022-08-03T06:05:50;100827.00;;;21.80
71205;BMP180;58935;54.498;18.544;2022-08-03T06:08:15;100825.60;;;21.80
71205;BMP180;58935;54.498;18.544;2022-08-03T06:10:40;100832.40;;;21.80
71205;BMP180;58935;54.498;18.544;2022-08-03T06:13:06;100832.60;;;21.80
71205;BMP180;58935;54.498;18.544;2022-08-03T06:15:31;100836.60;;;21.88
71205;BMP180;58935;54.498;18.544;2022-08-03T06:17:59;100843.20;;;21.90
71205;BMP180;58935;54.498;18.544;2022-08-03T06:20:25;100846.80;;;21.96
71205;BMP180;58935;54.498;18.544;2022-08-03T06:22:50;100849.00;;;22.00
71205;BMP180;58935;54.498;18.544;2022-08-03T06:25:16;100843.80;;;22.10
71205;BMP180;58935;54.498;18.544;2022-08-03T06:27:43;100846.80;;;22.10
71205;BMP180;58935;54.498;18.544;2022-08-03T06:30:10;100843.60;;;22.20
71205;BMP180;58935;54.498;18.544;2022-08-03T06:32:41;100844.20;;;22.30
71205;BMP180;58935;54.498;18.544;2022-08-03T06:35:08;100844.20;;;22.40
71205;BMP180;58935;54.498;18.544;2022-08-03T06:37:50;100842.80;;;22.48
71205;BMP180;58935;54.498;18.544;2022-08-03T06:40:19;100841.00;;;22.50
71205;BMP180;58935;54.498;18.544;2022-08-03T06:42:45;100839.40;;;22.60
71205;BMP180;58935;54.498;18.544;2022-08-03T06:45:12;100834.60;;;22.60
71205;BMP180;58935;54.498;18.544;2022-08-03T06:47:39;100835.40;;;22.60
71205;BMP180;58935;54.498;18.544;2022-08-03T06:50:06;100841.20;;;22.70
71205;BMP180;58935;54.498;18.544;2022-08-03T06:52:32;100838.00;;;22.70
71205;BMP180;58935;54.498;18.544;2022-08-03T06:54:58;100837.60;;;22.72
71205;BMP180;58935;54.498;18.544;2022-08-03T06:57:24;100839.60;;;22.80
71205;BMP180;58935;54.498;18.544;2022-08-03T06:59:49;100836.60;;;22.82
71205;BMP180;58935;54.498;18.544;2022-08-03T07:02:15;100844.80;;;22.90
71205;BMP180;58935;54.498;18.544;2022-08-03T07:04:42;100841.60;;;23.00
71205;BMP180;58935;54.498;18.544;2022-08-03T07:07:08;100838.40;;;23.10
71205;BMP180;58935;54.498;18.544;2022-08-03T07:09:33;100841.00;;;23.10
71205;BMP180;58935;54.498;18.544;2022-08-03T07:11:58;100845.40;;;23.20
71205;BMP180;58935;54.498;18.544;2022-08-03T07:14:26;100842.40;;;23.30
71205;BMP180;58935;54.498;18.544;2022-08-03T07:16:52;100842.40;;;23.38
71205;BMP180;58935;54.498;18.544;2022-08-03T07:19:17;100846.00;;;23.48
71205;BMP180;58935;54.498;18.544;2022-08-03T07:21:43;100844.80;;;23.50
71205;BMP180;58935;54.498;18.544;2022-08-03T07:24:10;100851.00;;;23.50
71205;BMP180;58935;54.498;18.544;2022-08-03T07:26:36;100850.60;;;23.50
71205;BMP180;58935;54.498;18.544;2022-08-03T07:29:01;100850.40;;;23.44
71205;BMP180;58935;54.498;18.544;2022-08-03T07:31:26;100848.40;;;23.40
71205;BMP180;58935;54.498;18.544;2022-08-03T07:33:52;100850.80;;;23.40
71205;BMP180;58935;54.498;18.544;2022-08-03T07:36:18;100852.60;;;23.38
71205;BMP180;58935;54.498;18.544;2022-08-03T07:38:43;100848.60;;;23.26
71205;BMP180;58935;54.498;18.544;2022-08-03T07:41:08;100851.60;;;23.20
71205;BMP180;58935;54.498;18.544;2022-08-03T07:43:34;100853.60;;;23.18
71205;BMP180;58935;54.498;18.544;2022-08-03T07:45:59;100852.60;;;23.10
71205;BMP180;58935;54.498;18.544;2022-08-03T07:48:25;100852.60;;;23.00
71205;BMP180;58935;54.498;18.544;2022-08-03T07:50:50;100849.80;;;22.98
71205;BMP180;58935;54.498;18.544;2022-08-03T07:53:17;100854.60;;;23.00
71205;BMP180;58935;54.498;18.544;2022-08-03T07:55:42;100853.60;;;23.00
71205;BMP180;58935;54.498;18.544;2022-08-03T07:58:10;100854.40;;;23.10
71205;BMP180;58935;54.498;18.544;2022-08-03T08:00:40;100851.80;;;23.20
71205;BMP180;58935;54.498;18.544;2022-08-03T08:03:07;100849.40;;;23.30
71205;BMP180;58935;54.498;18.544;2022-08-03T08:05:33;100852.80;;;23.30
71205;BMP180;58935;54.498;18.544;2022-08-03T08:08:00;100852.20;;;23.40
71205;BMP180;58935;54.498;18.544;2022-08-03T08:10:27;100854.60;;;23.50
71205;BMP180;58935;54.498;18.544;2022-08-03T08:12:54;100852.40;;;23.50
71205;BMP180;58935;54.498;18.544;2022-08-03T08:15:19;100853.60;;;23.48
71205;BMP180;58935;54.498;18.544;2022-08-03T08:17:49;100853.60;;;23.40
71205;BMP180;58935;54.498;18.544;2022-08-03T08:20:19;100858.80;;;23.40
71205;BMP180;58935;54.498;18.544;2022-08-03T08:22:45;100862.00;;;23.36
71205;BMP180;58935;54.498;18.544;2022-08-03T08:25:10;100860.00;;;23.30
71205;BMP180;58935;54.498;18.544;2022-08-03T08:27:41;100860.40;;;23.30
71205;BMP180;58935;54.498;18.544;2022-08-03T08:30:07;100861.80;;;23.40
71205;BMP180;58935;54.498;18.544;2022-08-03T08:32:33;100861.60;;;23.30
71205;BMP180;58935;54.498;18.544;2022-08-03T08:35:02;100864.40;;;23.40
71205;BMP180;58935;54.498;18.544;2022-08-03T08:37:28;100859.00;;;23.40
71205;BMP180;58935;54.498;18.544;2022-08-03T08:39:55;100860.60;;;23.40
71205;BMP180;58935;54.498;18.544;2022-08-03T08:42:21;100858.00;;;23.40
71205;BMP180;58935;54.498;18.544;2022-08-03T08:44:47;100867.60;;;23.50
71205;BMP180;58935;54.498;18.544;2022-08-03T08:47:13;100862.60;;;23.50
71205;BMP180;58935;54.498;18.544;2022-08-03T08:49:40;100865.60;;;23.50
71205;BMP180;58935;54.498;18.544;2022-08-03T08:52:11;100870.80;;;23.52
71205;BMP180;58935;54.498;18.544;2022-08-03T08:54:40;100866.80;;;23.60
71205;BMP180;58935;54.498;18.544;2022-08-03T08:57:08;100870.00;;;23.60
71205;BMP180;58935;54.498;18.544;2022-08-03T08:59:34;100871.20;;;23.60
71205;BMP180;58935;54.498;18.544;2022-08-03T09:02:01;100871.60;;;23.60
71205;BMP180;58935;54.498;18.544;2022-08-03T09:04:28;100869.80;;;23.60
71205;BMP180;58935;54.498;18.544;2022-08-03T09:06:54;100868.20;;;23.60
71205;BMP180;58935;54.498;18.544;2022-08-03T09:09:20;100867.20;;;23.60
71205;BMP180;58935;54.498;18.544;2022-08-03T09:11:48;100871.40;;;23.60
71205;BMP180;58935;54.498;18.544;2022-08-03T09:14:14;100872.20;;;23.66
71205;BMP180;58935;54.498;18.544;2022-08-03T09:16:56;100869.40;;;23.60
71205;BMP180;58935;54.498;18.544;2022-08-03T09:19:24;100870.80;;;23.70
71205;BMP180;58935;54.498;18.544;2022-08-03T09:22:12;100873.00;;;23.70
71205;BMP180;58935;54.498;18.544;2022-08-03T09:24:58;100871.00;;;23.70
71205;BMP180;58935;54.498;18.544;2022-08-03T09:27:24;100868.80;;;23.60
71205;BMP180;58935;54.498;18.544;2022-08-03T09:29:52;100870.00;;;23.60
71205;BMP180;58935;54.498;18.544;2022-08-03T09:32:23;100864.80;;;23.70
71205;BMP180;58935;54.498;18.544;2022-08-03T09:34:51;100869.00;;;23.70
71205;BMP180;58935;54.498;18.544;2022-08-03T09:37:20;100870.20;;;23.70
71205;BMP180;58935;54.498;18.544;2022-08-03T09:39:50;100866.60;;;23.70
71205;BMP180;58935;54.498;18.544;2022-08-03T09:42:18;100870.40;;;23.70
71205;BMP180;58935;54.498;18.544;2022-08-03T09:44:47;100870.20;;;23.68
71205;BMP180;58935;54.498;18.544;2022-08-03T09:47:25;100865.80;;;23.68
71205;BMP180;58935;54.498;18.544;2022-08-03T09:50:04;100873.20;;;23.70
71205;BMP180;58935;54.498;18.544;2022-08-03T09:52:33;100876.80;;;23.70
71205;BMP180;58935;54.498;18.544;2022-08-03T09:55:01;100870.60;;;23.70
71205;BMP180;58935;54.498;18.544;2022-08-03T09:57:27;100872.20;;;23.70
71205;BMP180;58935;54.498;18.544;2022-08-03T10:00:07;100869.00;;;23.70
71205;BMP180;58935;54.498;18.544;2022-08-03T10:02:35;100873.20;;;23.74
71205;BMP180;58935;54.498;18.544;2022-08-03T10:05:03;100876.60;;;23.80
71205;BMP180;58935;54.498;18.544;2022-08-03T10:07:29;100875.20;;;23.80
71205;BMP180;58935;54.498;18.544;2022-08-03T10:10:00;100877.80;;;23.86
71205;BMP180;58935;54.498;18.544;2022-08-03T10:12:27;100875.20;;;23.90
71205;BMP180;58935;54.498;18.544;2022-08-03T10:14:54;100876.40;;;23.90
71205;BMP180;58935;54.498;18.544;2022-08-03T10:17:21;100869.60;;;23.90
71205;BMP180;58935;54.498;18.544;2022-08-03T10:19:48;100868.80;;;23.90
71205;BMP180;58935;54.498;18.544;2022-08-03T10:22:22;100867.80;;;23.90
71205;BMP180;58935;54.498;18.544;2022-08-03T10:25:05;100871.00;;;23.90
71205;BMP180;58935;54.498;18.544;2022-08-03T10:27:36;100869.20;;;23.90
71205;BMP180;58935;54.498;18.544;2022-08-03T10:30:06;100862.40;;;23.92
71205;BMP180;58935;54.498;18.544;2022-08-03T10:32:40;100856.20;;;24.00
71205;BMP180;58935;54.498;18.544;2022-08-03T10:35:11;100857.20;;;24.00
71205;BMP180;58935;54.498;18.544;2022-08-03T10:37:43;100860.20;;;24.00
71205;BMP180;58935;54.498;18.544;2022-08-03T10:40:13;100856.60;;;24.00
71205;BMP180;58935;54.498;18.544;2022-08-03T10:42:42;100854.20;;;24.00
71205;BMP180;58935;54.498;18.544;2022-08-03T10:45:17;100851.20;;;24.00
71205;BMP180;58935;54.498;18.544;2022-08-03T10:47:48;100853.00;;;24.00
71205;BMP180;58935;54.498;18.544;2022-08-03T10:50:16;100853.20;;;24.00
71205;BMP180;58935;54.498;18.544;2022-08-03T10:52:55;100855.00;;;24.00
71205;BMP180;58935;54.498;18.544;2022-08-03T10:55:36;100852.40;;;24.10
71205;BMP180;58935;54.498;18.544;2022-08-03T10:58:05;100848.80;;;24.04
71205;BMP180;58935;54.498;18.544;2022-08-03T11:00:48;100847.20;;;24.10
71205;BMP180;58935;54.498;18.544;2022-08-03T11:03:15;100846.20;;;24.14
71205;BMP180;58935;54.498;18.544;2022-08-03T11:05:47;100850.60;;;24.20
71205;BMP180;58935;54.498;18.544;2022-08-03T11:08:26;100846.00;;;24.30
71205;BMP180;58935;54.498;18.544;2022-08-03T11:10:56;100849.20;;;24.40
71205;BMP180;58935;54.498;18.544;2022-08-03T11:13:25;100843.80;;;24.50
71205;BMP180;58935;54.498;18.544;2022-08-03T11:15:56;100840.60;;;24.60
71205;BMP180;58935;54.498;18.544;2022-08-03T11:18:23;100838.80;;;24.66
71205;BMP180;58935;54.498;18.544;2022-08-03T11:20:52;100833.00;;;24.70
71205;BMP180;58935;54.498;18.544;2022-08-03T11:23:41;100838.40;;;24.80
71205;BMP180;58935;54.498;18.544;2022-08-03T11:26:15;100833.60;;;24.90
71205;BMP180;58935;54.498;18.544;2022-08-03T11:28:46;100835.60;;;24.80
71205;BMP180;58935;54.498;18.544;2022-08-03T11:31:44;100837.00;;;24.72
71205;BMP180;58935;54.498;18.544;2022-08-03T11:34:13;100835.20;;;24.70
71205;BMP180;58935;54.498;18.544;2022-08-03T11:39:43;100836.80;;;24.70
71205;BMP180;58935;54.498;18.544;2022-08-03T11:42:38;100836.60;;;24.70
71205;BMP180;58935;54.498;18.544;2022-08-03T11:45:07;100834.80;;;24.80
71205;BMP180;58935;54.498;18.544;2022-08-03T11:47:36;100826.80;;;24.80
71205;BMP180;58935;54.498;18.544;2022-08-03T11:50:04;100821.60;;;24.80
71205;BMP180;58935;54.498;18.544;2022-08-03T11:52:35;100827.80;;;24.80
71205;BMP180;58935;54.498;18.544;2022-08-03T11:55:07;100828.60;;;24.90
71205;BMP180;58935;54.498;18.544;2022-08-03T11:57:34;100829.40;;;24.90
71205;BMP180;58935;54.498;18.544;2022-08-03T12:00:00;100827.80;;;24.90
71205;BMP180;58935;54.498;18.544;2022-08-03T12:02:26;100821.80;;;25.00
71205;BMP180;58935;54.498;18.544;2022-08-03T12:04:54;100825.20;;;24.90
71205;BMP180;58935;54.498;18.544;2022-08-03T12:07:24;100831.00;;;24.90
71205;BMP180;58935;54.498;18.544;2022-08-03T12:12:27;100821.80;;;24.80
71205;BMP180;58935;54.498;18.544;2022-08-03T12:14:52;100820.00;;;24.90
71205;BMP180;58935;54.498;18.544;2022-08-03T12:17:18;100821.00;;;24.90
71205;BMP180;58935;54.498;18.544;2022-08-03T12:19:44;100821.80;;;24.90
71205;BMP180;58935;54.498;18.544;2022-08-03T12:22:10;100818.60;;;24.88
71205;BMP180;58935;54.498;18.544;2022-08-03T12:24:40;100812.00;;;24.80
71205;BMP180;58935;54.498;18.544;2022-08-03T12:27:06;100814.20;;;24.80
71205;BMP180;58935;54.498;18.544;2022-08-03T12:29:31;100817.20;;;24.80
71205;BMP180;58935;54.498;18.544;2022-08-03T12:31:57;100809.80;;;24.80
71205;BMP180;58935;54.498;18.544;2022-08-03T12:34:22;100807.20;;;24.90
71205;BMP180;58935;54.498;18.544;2022-08-03T12:36:54;100807.00;;;25.00
71205;BMP180;58935;54.498;18.544;2022-08-03T12:39:25;100812.80;;;25.00
71205;BMP180;58935;54.498;18.544;2022-08-03T12:41:55;100806.00;;;24.90
71205;BMP180;58935;54.498;18.544;2022-08-03T12:44:34;100804.40;;;24.90
71205;BMP180;58935;54.498;18.544;2022-08-03T12:47:02;100804.40;;;24.90
71205;BMP180;58935;54.498;18.544;2022-08-03T12:49:27;100795.60;;;24.90
71205;BMP180;58935;54.498;18.544;2022-08-03T12:51:57;100796.40;;;25.00
71205;BMP180;58935;54.498;18.544;2022-08-03T12:54:26;100801.20;;;25.16
71205;BMP180;58935;54.498;18.544;2022-08-03T12:57:02;100798.40;;;25.20
71205;BMP180;58935;54.498;18.544;2022-08-03T12:59:32;100796.00;;;25.30
71205;BMP180;58935;54.498;18.544;2022-08-03T13:01:58;100790.00;;;25.20
71205;BMP180;58935;54.498;18.544;2022-08-03T13:04:36;100784.20;;;25.20
71205;BMP180;58935;54.498;18.544;2022-08-03T13:07:05;100789.40;;;25.20
71205;BMP180;58935;54.498;18.544;2022-08-03T13:09:43;100792.00;;;25.20
71205;BMP180;58935;54.498;18.544;2022-08-03T13:12:13;100792.00;;;25.30
71205;BMP180;58935;54.498;18.544;2022-08-03T13:14:41;100788.60;;;25.30
71205;BMP180;58935;54.498;18.544;2022-08-03T13:17:07;100782.60;;;25.30
71205;BMP180;58935;54.498;18.544;2022-08-03T13:19:35;100773.20;;;25.30
71205;BMP180;58935;54.498;18.544;2022-08-03T13:22:13;100775.20;;;25.40
71205;BMP180;58935;54.498;18.544;2022-08-03T13:24:41;100778.40;;;25.50
71205;BMP180;58935;54.498;18.544;2022-08-03T13:27:07;100774.60;;;25.50
71205;BMP180;58935;54.498;18.544;2022-08-03T13:29:34;100775.00;;;25.60
71205;BMP180;58935;54.498;18.544;2022-08-03T13:32:01;100771.80;;;25.62
71205;BMP180;58935;54.498;18.544;2022-08-03T13:34:27;100775.20;;;25.74
71205;BMP180;58935;54.498;18.544;2022-08-03T13:36:53;100774.20;;;25.90
71205;BMP180;58935;54.498;18.544;2022-08-03T13:39:19;100769.20;;;25.90
71205;BMP180;58935;54.498;18.544;2022-08-03T13:41:45;100769.60;;;26.00
71205;BMP180;58935;54.498;18.544;2022-08-03T13:44:12;100762.00;;;26.06
71205;BMP180;58935;54.498;18.544;2022-08-03T13:46:37;100760.60;;;26.10
71205;BMP180;58935;54.498;18.544;2022-08-03T13:49:03;100762.40;;;26.24
71205;BMP180;58935;54.498;18.544;2022-08-03T13:51:29;100767.00;;;26.40
71205;BMP180;58935;54.498;18.544;2022-08-03T13:53:54;100765.60;;;26.60
71205;BMP180;58935;54.498;18.544;2022-08-03T13:56:20;100763.40;;;26.70
71205;BMP180;58935;54.498;18.544;2022-08-03T13:58:45;100766.40;;;26.80
71205;BMP180;58935;54.498;18.544;2022-08-03T14:01:10;100764.00;;;26.90
71205;BMP180;58935;54.498;18.544;2022-08-03T14:03:36;100763.80;;;27.00
71205;BMP180;58935;54.498;18.544;2022-08-03T14:06:02;100760.60;;;27.20